UKDR/KWG METAR and TAF weather

Enter ICAO airport designator
Station Type Date Time Source
UKDR METAR 2019/08/25 13:30 UTC NOAA

UKDR 251330Z 06004MPS 340V110 CAVOK 31/08 Q1021 R36/09//70 NOSIG


Station Type Date Time Source
UKDR Decoded METAR 2019/08/25 13:30 UTC NOAA

Station name not available
Aug 25, 2019 - 09:30 AM EDT / 2019.08.25 1330 UTC
Wind: from the ENE (060 degrees) at 9 MPH (8 KT) (direction variable):0
Visibility: greater than 7 mile(s):0
Temperature: 87 F (31 C)
Dew Point: 46 F (8 C)
Relative Humidity: 23%
Pressure (altimeter): 30.15 in. Hg (1021 hPa)
ob: UKDR 251330Z 06004MPS 340V110 CAVOK 31/08 Q1021 R36/09//70 NOSIG
cycle: 13

Station Type Date Time Source
UKDR TAF 2019/08/25 12:00 UTC NOAA

TAF UKDR 251101Z 2512/2612 04004MPS CAVOK TX32/2512Z TN16/2603Z
TEMPO 2512/2516 04007G12MPS

Example: see airport list